Lefkoniko — 9HA2200 — position and weather

sailwx.info

Track history (hours):
 
Tides and Currents Weather Stations Pressure Air Temp Water Temp Dewpoint Dewpoint Depression Visibility Wind Speed Wind Dir Waves Ship Positions

Lefkoniko

Last reported at 2018-May-04 13:35 UTC. Time now 2018-Jul-17 16:50 UTC.
Position N 16°41' E 055°58'.
Warning: this ship's position is months out of date.

Length 190 m; draft 11.4 m.

Type: Cargo ship. MMSI: 248137000.

Date/timePositionNaut miles runAvg speedWind from/ knotsBaromVisibWave heightAir tempDewpointWater temp
2018-May-04 13:35N 16°41' E 055°58'211.2
2018-May-04 13:26N 16°42' E 055°59'1611.1
2018-May-04 12:00N 16°52' E 056°12'1311.2
2018-May-04 10:50N 16°60' E 056°23'15010.7
2018-May-03 20:50N 18°39' E 058°21'612.1
2018-May-03 20:20N 18°44' E 058°24'2012.2
2018-May-03 18:39N 19°02' E 058°35'211.9
2018-May-03 18:29N 19°04' E 058°36'812.0
2018-May-03 17:47N 19°11' E 058°41'3811.5
2018-May-03 14:29N 19°44' E 059°01'  
Track history (hours):
 
Tides and Currents Weather Stations Pressure Air Temp Water Temp Dewpoint Dewpoint Depression Visibility Wind Speed Wind Dir Waves Ship Positions

Lefkoniko

Last reported at 2018-May-04 13:35 UTC. Time now 2018-Jul-17 16:50 UTC.
Position N 16°41' E 055°58'.
Warning: this ship's position is months out of date.

Length 190 m; draft 11.4 m.

Type: Cargo ship. MMSI: 248137000.

Date/timePositionNaut miles runAvg speedWind from/ knotsBaromVisibWave heightAir tempDewpointWater temp
2018-May-04 13:35N 16°41' E 055°58'211.2
2018-May-04 13:26N 16°42' E 055°59'1611.1
2018-May-04 12:00N 16°52' E 056°12'1311.2
2018-May-04 10:50N 16°60' E 056°23'15010.7
2018-May-03 20:50N 18°39' E 058°21'612.1
2018-May-03 20:20N 18°44' E 058°24'2012.2
2018-May-03 18:39N 19°02' E 058°35'211.9
2018-May-03 18:29N 19°04' E 058°36'812.0
2018-May-03 17:47N 19°11' E 058°41'3811.5
2018-May-03 14:29N 19°44' E 059°01'  

Dump ship's entire track history